sensor_id;sensor_type;location;lat;lon;timestamp;P1;durP1;ratioP1;P2;durP2;ratioP2
11398;SDS011;5755;48.116;11.608;2022-10-16T00:01:24;14.00;;;10.85;;
11398;SDS011;5755;48.116;11.608;2022-10-16T00:03:52;6.45;;;5.32;;
11398;SDS011;5755;48.116;11.608;2022-10-16T00:06:24;21.67;;;17.88;;
11398;SDS011;5755;48.116;11.608;2022-10-16T00:08:53;5.28;;;3.63;;
11398;SDS011;5755;48.116;11.608;2022-10-16T00:11:23;15.32;;;12.30;;
11398;SDS011;5755;48.116;11.608;2022-10-16T00:13:54;4.63;;;2.83;;
11398;SDS011;5755;48.116;11.608;2022-10-16T00:16:35;7.97;;;2.30;;
11398;SDS011;5755;48.116;11.608;2022-10-16T00:19:05;7.35;;;3.80;;
11398;SDS011;5755;48.116;11.608;2022-10-16T00:21:36;3.58;;;2.28;;
11398;SDS011;5755;48.116;11.608;2022-10-16T00:24:13;5.15;;;2.25;;
11398;SDS011;5755;48.116;11.608;2022-10-16T00:26:40;4.53;;;2.30;;
11398;SDS011;5755;48.116;11.608;2022-10-16T00:29:23;7.50;;;6.25;;
11398;SDS011;5755;48.116;11.608;2022-10-16T00:31:59;7.53;;;6.13;;
11398;SDS011;5755;48.116;11.608;2022-10-16T00:34:29;2.88;;;2.33;;
11398;SDS011;5755;48.116;11.608;2022-10-16T00:36:56;5.60;;;3.80;;
11398;SDS011;5755;48.116;11.608;2022-10-16T00:42:15;4.97;;;2.65;;
11398;SDS011;5755;48.116;11.608;2022-10-16T00:44:54;6.38;;;3.72;;
11398;SDS011;5755;48.116;11.608;2022-10-16T00:47:26;4.55;;;1.92;;
11398;SDS011;5755;48.116;11.608;2022-10-16T00:56:13;2.63;;;2.30;;
11398;SDS011;5755;48.116;11.608;2022-10-16T01:01:54;3.30;;;1.70;;
11398;SDS011;5755;48.116;11.608;2022-10-16T01:20:42;3.60;;;1.63;;
11398;SDS011;5755;48.116;11.608;2022-10-16T01:23:21;3.58;;;1.80;;
11398;SDS011;5755;48.116;11.608;2022-10-16T01:25:59;3.05;;;2.75;;
11398;SDS011;5755;48.116;11.608;2022-10-16T01:31:24;2.95;;;1.90;;
11398;SDS011;5755;48.116;11.608;2022-10-16T01:34:06;2.28;;;1.70;;
11398;SDS011;5755;48.116;11.608;2022-10-16T01:36:42;4.60;;;1.73;;
11398;SDS011;5755;48.116;11.608;2022-10-16T01:45:35;3.15;;;1.70;;
11398;SDS011;5755;48.116;11.608;2022-10-16T02:01:01;2.10;;;1.90;;
11398;SDS011;5755;48.116;11.608;2022-10-16T02:13:19;3.83;;;1.70;;
11398;SDS011;5755;48.116;11.608;2022-10-16T02:15:53;2.33;;;1.60;;
11398;SDS011;5755;48.116;11.608;2022-10-16T02:18:25;3.22;;;1.60;;
11398;SDS011;5755;48.116;11.608;2022-10-16T02:21:00;5.40;;;1.67;;
11398;SDS011;5755;48.116;11.608;2022-10-16T02:32:48;3.72;;;1.60;;
11398;SDS011;5755;48.116;11.608;2022-10-16T02:35:22;1.65;;;1.23;;
11398;SDS011;5755;48.116;11.608;2022-10-16T02:37:50;1.40;;;1.30;;
11398;SDS011;5755;48.116;11.608;2022-10-16T02:46:05;2.65;;;1.70;;
11398;SDS011;5755;48.116;11.608;2022-10-16T02:51:52;3.20;;;1.58;;
11398;SDS011;5755;48.116;11.608;2022-10-16T02:54:19;4.82;;;1.73;;
11398;SDS011;5755;48.116;11.608;2022-10-16T02:56:48;5.97;;;1.58;;
11398;SDS011;5755;48.116;11.608;2022-10-16T03:05:23;3.63;;;1.55;;
11398;SDS011;5755;48.116;11.608;2022-10-16T03:07:55;2.83;;;1.70;;
11398;SDS011;5755;48.116;11.608;2022-10-16T03:10:29;6.57;;;1.60;;
11398;SDS011;5755;48.116;11.608;2022-10-16T03:16:18;2.28;;;1.60;;
11398;SDS011;5755;48.116;11.608;2022-10-16T03:27:18;1.98;;;1.50;;
11398;SDS011;5755;48.116;11.608;2022-10-16T03:29:44;1.60;;;1.50;;
11398;SDS011;5755;48.116;11.608;2022-10-16T03:32:11;2.33;;;1.58;;
11398;SDS011;5755;48.116;11.608;2022-10-16T03:34:47;2.45;;;1.35;;
11398;SDS011;5755;48.116;11.608;2022-10-16T03:37:19;2.85;;;1.65;;
11398;SDS011;5755;48.116;11.608;2022-10-16T03:48:11;8.07;;;1.83;;
11398;SDS011;5755;48.116;11.608;2022-10-16T03:54:12;1.40;;;1.30;;
11398;SDS011;5755;48.116;11.608;2022-10-16T03:56:54;5.13;;;1.60;;
11398;SDS011;5755;48.116;11.608;2022-10-16T04:05:54;6.13;;;1.70;;
11398;SDS011;5755;48.116;11.608;2022-10-16T04:14:20;4.85;;;1.73;;
11398;SDS011;5755;48.116;11.608;2022-10-16T04:16:47;2.30;;;1.90;;
11398;SDS011;5755;48.116;11.608;2022-10-16T04:22:06;4.63;;;1.80;;
11398;SDS011;5755;48.116;11.608;2022-10-16T04:24:32;1.92;;;1.60;;
11398;SDS011;5755;48.116;11.608;2022-10-16T04:27:06;3.65;;;1.80;;
11398;SDS011;5755;48.116;11.608;2022-10-16T04:29:36;2.80;;;1.52;;
11398;SDS011;5755;48.116;11.608;2022-10-16T04:32:03;1.92;;;1.60;;
11398;SDS011;5755;48.116;11.608;2022-10-16T04:34:30;2.13;;;1.70;;
11398;SDS011;5755;48.116;11.608;2022-10-16T04:36:58;1.92;;;1.70;;
11398;SDS011;5755;48.116;11.608;2022-10-16T04:39:25;3.92;;;1.70;;
11398;SDS011;5755;48.116;11.608;2022-10-16T04:41:52;3.38;;;2.13;;
11398;SDS011;5755;48.116;11.608;2022-10-16T04:44:19;2.67;;;1.90;;
11398;SDS011;5755;48.116;11.608;2022-10-16T04:46:49;2.60;;;1.70;;
11398;SDS011;5755;48.116;11.608;2022-10-16T04:49:17;2.78;;;1.90;;
11398;SDS011;5755;48.116;11.608;2022-10-16T04:51:44;4.97;;;1.48;;
11398;SDS011;5755;48.116;11.608;2022-10-16T04:54:12;2.65;;;1.60;;
11398;SDS011;5755;48.116;11.608;2022-10-16T04:56:48;5.22;;;1.70;;
11398;SDS011;5755;48.116;11.608;2022-10-16T04:59:16;3.30;;;1.75;;
11398;SDS011;5755;48.116;11.608;2022-10-16T05:01:48;3.55;;;1.80;;
11398;SDS011;5755;48.116;11.608;2022-10-16T05:04:14;1.70;;;1.60;;
11398;SDS011;5755;48.116;11.608;2022-10-16T05:06:41;4.00;;;1.60;;
11398;SDS011;5755;48.116;11.608;2022-10-16T05:09:13;3.10;;;1.60;;
11398;SDS011;5755;48.116;11.608;2022-10-16T05:11:40;1.67;;;1.58;;
11398;SDS011;5755;48.116;11.608;2022-10-16T05:14:07;1.98;;;1.60;;
11398;SDS011;5755;48.116;11.608;2022-10-16T05:16:36;4.03;;;1.90;;
11398;SDS011;5755;48.116;11.608;2022-10-16T05:19:03;3.28;;;1.73;;
11398;SDS011;5755;48.116;11.608;2022-10-16T05:21:30;5.68;;;1.92;;
11398;SDS011;5755;48.116;11.608;2022-10-16T05:23:56;2.97;;;1.80;;
11398;SDS011;5755;48.116;11.608;2022-10-16T05:26:25;4.32;;;1.83;;
11398;SDS011;5755;48.116;11.608;2022-10-16T05:28:52;6.47;;;1.90;;
11398;SDS011;5755;48.116;11.608;2022-10-16T05:31:18;2.72;;;1.48;;
11398;SDS011;5755;48.116;11.608;2022-10-16T05:33:45;1.75;;;1.60;;
11398;SDS011;5755;48.116;11.608;2022-10-16T05:36:12;5.93;;;1.70;;
11398;SDS011;5755;48.116;11.608;2022-10-16T05:38:50;2.53;;;1.70;;
11398;SDS011;5755;48.116;11.608;2022-10-16T05:41:17;1.50;;;1.40;;
11398;SDS011;5755;48.116;11.608;2022-10-16T05:43:49;1.70;;;1.58;;
11398;SDS011;5755;48.116;11.608;2022-10-16T05:46:16;1.67;;;1.55;;
11398;SDS011;5755;48.116;11.608;2022-10-16T05:48:45;3.08;;;1.67;;
11398;SDS011;5755;48.116;11.608;2022-10-16T05:51:12;3.60;;;1.80;;
11398;SDS011;5755;48.116;11.608;2022-10-16T05:53:42;5.18;;;1.98;;
11398;SDS011;5755;48.116;11.608;2022-10-16T05:56:10;5.15;;;1.90;;
11398;SDS011;5755;48.116;11.608;2022-10-16T05:58:38;5.38;;;1.90;;
11398;SDS011;5755;48.116;11.608;2022-10-16T06:01:14;2.08;;;1.65;;
11398;SDS011;5755;48.116;11.608;2022-10-16T06:03:42;4.00;;;1.88;;
11398;SDS011;5755;48.116;11.608;2022-10-16T06:06:12;1.90;;;1.73;;
11398;SDS011;5755;48.116;11.608;2022-10-16T06:08:42;3.42;;;1.80;;
11398;SDS011;5755;48.116;11.608;2022-10-16T06:11:11;2.45;;;2.03;;
11398;SDS011;5755;48.116;11.608;2022-10-16T06:13:40;2.35;;;1.70;;
11398;SDS011;5755;48.116;11.608;2022-10-16T06:16:07;4.03;;;1.83;;
11398;SDS011;5755;48.116;11.608;2022-10-16T06:18:37;3.00;;;1.70;;
11398;SDS011;5755;48.116;11.608;2022-10-16T06:21:07;2.38;;;2.00;;
11398;SDS011;5755;48.116;11.608;2022-10-16T06:23:35;4.88;;;1.98;;
11398;SDS011;5755;48.116;11.608;2022-10-16T06:26:06;4.47;;;2.13;;
11398;SDS011;5755;48.116;11.608;2022-10-16T06:28:33;2.38;;;2.17;;
11398;SDS011;5755;48.116;11.608;2022-10-16T06:31:00;2.08;;;1.88;;
11398;SDS011;5755;48.116;11.608;2022-10-16T06:33:28;8.02;;;2.22;;
11398;SDS011;5755;48.116;11.608;2022-10-16T06:36:01;3.97;;;2.53;;
11398;SDS011;5755;48.116;11.608;2022-10-16T06:38:28;2.55;;;1.90;;
11398;SDS011;5755;48.116;11.608;2022-10-16T06:41:06;2.70;;;2.10;;
11398;SDS011;5755;48.116;11.608;2022-10-16T06:43:34;2.30;;;2.10;;
11398;SDS011;5755;48.116;11.608;2022-10-16T06:46:01;2.00;;;1.90;;
11398;SDS011;5755;48.116;11.608;2022-10-16T06:48:30;3.08;;;2.10;;
11398;SDS011;5755;48.116;11.608;2022-10-16T06:50:57;3.03;;;2.30;;
11398;SDS011;5755;48.116;11.608;2022-10-16T06:53:28;2.72;;;2.47;;
11398;SDS011;5755;48.116;11.608;2022-10-16T06:56:06;2.38;;;2.17;;
11398;SDS011;5755;48.116;11.608;2022-10-16T06:58:36;2.70;;;2.45;;
11398;SDS011;5755;48.116;11.608;2022-10-16T07:01:03;2.50;;;2.30;;
11398;SDS011;5755;48.116;11.608;2022-10-16T07:03:42;3.70;;;2.35;;
11398;SDS011;5755;48.116;11.608;2022-10-16T07:06:11;3.90;;;2.20;;
11398;SDS011;5755;48.116;11.608;2022-10-16T07:08:50;4.40;;;2.28;;
11398;SDS011;5755;48.116;11.608;2022-10-16T07:11:20;2.55;;;2.08;;
11398;SDS011;5755;48.116;11.608;2022-10-16T07:13:54;2.78;;;2.17;;
11398;SDS011;5755;48.116;11.608;2022-10-16T07:16:36;3.10;;;2.30;;
11398;SDS011;5755;48.116;11.608;2022-10-16T07:21:44;2.70;;;2.40;;
11398;SDS011;5755;48.116;11.608;2022-10-16T07:30:10;3.00;;;2.33;;
11398;SDS011;5755;48.116;11.608;2022-10-16T07:32:37;3.25;;;2.70;;
11398;SDS011;5755;48.116;11.608;2022-10-16T07:35:12;2.95;;;2.42;;
11398;SDS011;5755;48.116;11.608;2022-10-16T07:37:39;3.97;;;2.20;;
11398;SDS011;5755;48.116;11.608;2022-10-16T07:40:06;3.80;;;2.47;;
11398;SDS011;5755;48.116;11.608;2022-10-16T07:42:49;2.53;;;2.33;;
11398;SDS011;5755;48.116;11.608;2022-10-16T07:45:30;4.75;;;2.38;;
11398;SDS011;5755;48.116;11.608;2022-10-16T07:47:57;3.10;;;2.53;;
11398;SDS011;5755;48.116;11.608;2022-10-16T07:50:23;3.30;;;3.00;;
11398;SDS011;5755;48.116;11.608;2022-10-16T07:52:50;2.40;;;2.20;;
11398;SDS011;5755;48.116;11.608;2022-10-16T08:04:30;2.30;;;2.10;;
11398;SDS011;5755;48.116;11.608;2022-10-16T08:10:21;4.70;;;2.08;;
11398;SDS011;5755;48.116;11.608;2022-10-16T08:19:45;3.88;;;2.22;;
11398;SDS011;5755;48.116;11.608;2022-10-16T08:28:26;1.75;;;1.65;;
11398;SDS011;5755;48.116;11.608;2022-10-16T08:30:54;2.97;;;1.90;;
11398;SDS011;5755;48.116;11.608;2022-10-16T08:36:45;2.28;;;1.90;;
11398;SDS011;5755;48.116;11.608;2022-10-16T08:42:11;1.90;;;1.70;;
11398;SDS011;5755;48.116;11.608;2022-10-16T08:48:10;4.43;;;4.03;;
11398;SDS011;5755;48.116;11.608;2022-10-16T08:50:54;15.65;;;12.10;;
11398;SDS011;5755;48.116;11.608;2022-10-16T08:53:26;6.97;;;6.30;;
11398;SDS011;5755;48.116;11.608;2022-10-16T08:55:59;2.42;;;2.22;;
11398;SDS011;5755;48.116;11.608;2022-10-16T08:58:26;1.85;;;1.75;;
11398;SDS011;5755;48.116;11.608;2022-10-16T09:04:12;1.85;;;1.75;;
11398;SDS011;5755;48.116;11.608;2022-10-16T09:07:00;2.50;;;2.30;;
11398;SDS011;5755;48.116;11.608;2022-10-16T09:09:41;2.47;;;2.20;;
11398;SDS011;5755;48.116;11.608;2022-10-16T09:15:29;5.20;;;1.98;;
11398;SDS011;5755;48.116;11.608;2022-10-16T09:18:12;4.63;;;2.63;;
11398;SDS011;5755;48.116;11.608;2022-10-16T09:20:57;3.92;;;2.03;;
11398;SDS011;5755;48.116;11.608;2022-10-16T09:23:42;3.05;;;2.42;;
11398;SDS011;5755;48.116;11.608;2022-10-16T09:26:11;4.18;;;3.88;;
11398;SDS011;5755;48.116;11.608;2022-10-16T09:28:40;21.92;;;19.73;;
11398;SDS011;5755;48.116;11.608;2022-10-16T09:31:09;3.38;;;3.08;;
11398;SDS011;5755;48.116;11.608;2022-10-16T09:33:42;2.67;;;2.47;;
11398;SDS011;5755;48.116;11.608;2022-10-16T09:36:11;2.50;;;2.30;;
11398;SDS011;5755;48.116;11.608;2022-10-16T09:38:40;2.65;;;2.42;;
11398;SDS011;5755;48.116;11.608;2022-10-16T09:41:16;2.28;;;2.15;;
11398;SDS011;5755;48.116;11.608;2022-10-16T09:43:48;2.28;;;2.10;;
11398;SDS011;5755;48.116;11.608;2022-10-16T09:46:24;2.95;;;2.35;;
11398;SDS011;5755;48.116;11.608;2022-10-16T09:48:55;2.90;;;2.40;;
11398;SDS011;5755;48.116;11.608;2022-10-16T09:51:24;2.85;;;2.15;;
11398;SDS011;5755;48.116;11.608;2022-10-16T09:53:57;2.35;;;2.15;;
11398;SDS011;5755;48.116;11.608;2022-10-16T09:56:27;3.60;;;2.22;;
11398;SDS011;5755;48.116;11.608;2022-10-16T09:58:58;2.40;;;2.30;;
11398;SDS011;5755;48.116;11.608;2022-10-16T10:01:29;2.53;;;2.33;;
11398;SDS011;5755;48.116;11.608;2022-10-16T10:03:57;3.97;;;3.58;;
11398;SDS011;5755;48.116;11.608;2022-10-16T10:06:28;3.63;;;3.22;;
11398;SDS011;5755;48.116;11.608;2022-10-16T10:08:58;11.40;;;10.35;;
11398;SDS011;5755;48.116;11.608;2022-10-16T10:14:27;5.03;;;4.63;;
11398;SDS011;5755;48.116;11.608;2022-10-16T10:19:48;3.40;;;3.20;;
11398;SDS011;5755;48.116;11.608;2022-10-16T10:22:17;2.35;;;2.15;;
11398;SDS011;5755;48.116;11.608;2022-10-16T10:27:53;4.97;;;3.22;;
11398;SDS011;5755;48.116;11.608;2022-10-16T10:30:35;4.47;;;2.90;;
11398;SDS011;5755;48.116;11.608;2022-10-16T10:33:19;2.70;;;2.50;;
11398;SDS011;5755;48.116;11.608;2022-10-16T10:35:54;2.60;;;2.40;;
11398;SDS011;5755;48.116;11.608;2022-10-16T10:38:30;5.20;;;3.53;;
11398;SDS011;5755;48.116;11.608;2022-10-16T10:41:09;2.78;;;2.20;;
11398;SDS011;5755;48.116;11.608;2022-10-16T10:44:03;9.93;;;3.50;;
11398;SDS011;5755;48.116;11.608;2022-10-16T10:46:38;8.52;;;7.72;;
11398;SDS011;5755;48.116;11.608;2022-10-16T10:49:15;3.67;;;2.83;;
11398;SDS011;5755;48.116;11.608;2022-10-16T10:52:09;4.82;;;4.43;;
11398;SDS011;5755;48.116;11.608;2022-10-16T10:54:49;7.72;;;5.45;;
11398;SDS011;5755;48.116;11.608;2022-10-16T10:57:25;2.53;;;2.33;;
11398;SDS011;5755;48.116;11.608;2022-10-16T11:00:02;2.00;;;1.90;;
11398;SDS011;5755;48.116;11.608;2022-10-16T11:02:40;2.95;;;2.25;;
11398;SDS011;5755;48.116;11.608;2022-10-16T11:05:17;2.15;;;1.83;;
11398;SDS011;5755;48.116;11.608;2022-10-16T11:07:55;7.00;;;2.00;;
11398;SDS011;5755;48.116;11.608;2022-10-16T11:10:27;8.45;;;7.25;;
11398;SDS011;5755;48.116;11.608;2022-10-16T11:12:58;1.75;;;1.65;;
11398;SDS011;5755;48.116;11.608;2022-10-16T11:15:36;4.22;;;3.83;;
11398;SDS011;5755;48.116;11.608;2022-10-16T11:18:06;2.75;;;1.60;;
11398;SDS011;5755;48.116;11.608;2022-10-16T11:20:39;1.40;;;1.30;;
11398;SDS011;5755;48.116;11.608;2022-10-16T11:23:14;1.50;;;1.40;;
11398;SDS011;5755;48.116;11.608;2022-10-16T11:25:44;2.35;;;1.50;;
11398;SDS011;5755;48.116;11.608;2022-10-16T11:28:14;2.20;;;1.95;;
11398;SDS011;5755;48.116;11.608;2022-10-16T11:30:50;3.08;;;2.45;;
11398;SDS011;5755;48.116;11.608;2022-10-16T11:33:30;1.60;;;1.50;;
11398;SDS011;5755;48.116;11.608;2022-10-16T11:36:05;3.03;;;1.50;;
11398;SDS011;5755;48.116;11.608;2022-10-16T11:38:39;1.85;;;1.73;;
11398;SDS011;5755;48.116;11.608;2022-10-16T11:41:18;1.75;;;1.65;;
11398;SDS011;5755;48.116;11.608;2022-10-16T11:43:52;2.40;;;1.30;;
11398;SDS011;5755;48.116;11.608;2022-10-16T11:46:31;1.80;;;1.70;;
11398;SDS011;5755;48.116;11.608;2022-10-16T11:49:08;1.48;;;1.38;;
11398;SDS011;5755;48.116;11.608;2022-10-16T11:51:40;2.22;;;1.50;;
11398;SDS011;5755;48.116;11.608;2022-10-16T11:54:16;1.35;;;1.25;;
11398;SDS011;5755;48.116;11.608;2022-10-16T11:56:48;1.50;;;1.40;;
11398;SDS011;5755;48.116;11.608;2022-10-16T11:59:20;1.23;;;1.15;;
11398;SDS011;5755;48.116;11.608;2022-10-16T12:01:56;1.02;;;1.02;;
11398;SDS011;5755;48.116;11.608;2022-10-16T12:04:29;3.03;;;1.30;;
11398;SDS011;5755;48.116;11.608;2022-10-16T12:07:02;3.22;;;1.80;;
11398;SDS011;5755;48.116;11.608;2022-10-16T12:09:32;2.03;;;1.60;;
11398;SDS011;5755;48.116;11.608;2022-10-16T12:12:02;1.48;;;1.38;;
11398;SDS011;5755;48.116;11.608;2022-10-16T12:14:34;1.27;;;1.23;;
11398;SDS011;5755;48.116;11.608;2022-10-16T12:17:21;1.40;;;1.30;;
11398;SDS011;5755;48.116;11.608;2022-10-16T12:19:57;1.20;;;1.20;;
11398;SDS011;5755;48.116;11.608;2022-10-16T12:22:41;0.90;;;0.90;;
11398;SDS011;5755;48.116;11.608;2022-10-16T12:25:19;7.55;;;6.55;;
11398;SDS011;5755;48.116;11.608;2022-10-16T12:27:53;1.52;;;1.27;;
11398;SDS011;5755;48.116;11.608;2022-10-16T12:30:22;1.50;;;1.40;;
11398;SDS011;5755;48.116;11.608;2022-10-16T12:32:56;1.38;;;1.20;;
11398;SDS011;5755;48.116;11.608;2022-10-16T12:35:25;1.50;;;1.40;;
11398;SDS011;5755;48.116;11.608;2022-10-16T12:37:54;1.77;;;1.20;;
11398;SDS011;5755;48.116;11.608;2022-10-16T12:40:39;2.28;;;1.25;;
11398;SDS011;5755;48.116;11.608;2022-10-16T12:43:11;1.40;;;1.30;;
11398;SDS011;5755;48.116;11.608;2022-10-16T12:45:58;1.38;;;1.10;;
11398;SDS011;5755;48.116;11.608;2022-10-16T12:48:31;1.42;;;1.33;;
11398;SDS011;5755;48.116;11.608;2022-10-16T12:51:09;1.17;;;1.10;;
11398;SDS011;5755;48.116;11.608;2022-10-16T12:53:37;1.30;;;1.20;;
11398;SDS011;5755;48.116;11.608;2022-10-16T12:56:08;1.85;;;1.30;;
11398;SDS011;5755;48.116;11.608;2022-10-16T12:58:44;2.63;;;1.15;;
11398;SDS011;5755;48.116;11.608;2022-10-16T13:01:37;1.40;;;1.30;;
11398;SDS011;5755;48.116;11.608;2022-10-16T13:04:22;1.50;;;1.40;;
11398;SDS011;5755;48.116;11.608;2022-10-16T13:07:01;1.85;;;1.17;;
11398;SDS011;5755;48.116;11.608;2022-10-16T13:09:45;2.30;;;1.30;;
11398;SDS011;5755;48.116;11.608;2022-10-16T13:12:30;1.50;;;1.40;;
11398;SDS011;5755;48.116;11.608;2022-10-16T13:18:15;1.60;;;1.50;;
11398;SDS011;5755;48.116;11.608;2022-10-16T13:23:45;1.40;;;1.20;;
11398;SDS011;5755;48.116;11.608;2022-10-16T13:26:22;1.20;;;1.10;;
11398;SDS011;5755;48.116;11.608;2022-10-16T13:28:58;3.10;;;1.40;;
11398;SDS011;5755;48.116;11.608;2022-10-16T13:31:26;1.92;;;1.40;;
11398;SDS011;5755;48.116;11.608;2022-10-16T13:33:55;2.10;;;1.58;;
11398;SDS011;5755;48.116;11.608;2022-10-16T13:36:27;1.52;;;1.40;;
11398;SDS011;5755;48.116;11.608;2022-10-16T13:39:06;2.60;;;1.30;;
11398;SDS011;5755;48.116;11.608;2022-10-16T13:41:38;2.80;;;1.70;;
11398;SDS011;5755;48.116;11.608;2022-10-16T13:44:07;1.85;;;1.40;;
11398;SDS011;5755;48.116;11.608;2022-10-16T13:46:39;1.23;;;1.23;;
11398;SDS011;5755;48.116;11.608;2022-10-16T13:49:11;3.10;;;1.15;;
11398;SDS011;5755;48.116;11.608;2022-10-16T13:51:41;1.48;;;1.35;;
11398;SDS011;5755;48.116;11.608;2022-10-16T13:54:09;1.25;;;1.17;;
11398;SDS011;5755;48.116;11.608;2022-10-16T13:56:42;1.40;;;1.30;;
11398;SDS011;5755;48.116;11.608;2022-10-16T13:59:22;1.65;;;1.20;;
11398;SDS011;5755;48.116;11.608;2022-10-16T14:01:50;1.52;;;1.40;;
11398;SDS011;5755;48.116;11.608;2022-10-16T14:04:19;2.35;;;1.30;;
11398;SDS011;5755;48.116;11.608;2022-10-16T14:06:49;3.40;;;1.48;;
11398;SDS011;5755;48.116;11.608;2022-10-16T14:09:20;1.35;;;1.25;;
11398;SDS011;5755;48.116;11.608;2022-10-16T14:11:51;2.00;;;1.35;;
11398;SDS011;5755;48.116;11.608;2022-10-16T14:14:21;1.40;;;1.30;;
11398;SDS011;5755;48.116;11.608;2022-10-16T14:16:54;2.00;;;1.90;;
11398;SDS011;5755;48.116;11.608;2022-10-16T14:19:23;2.20;;;1.60;;
11398;SDS011;5755;48.116;11.608;2022-10-16T14:21:54;2.58;;;1.55;;
11398;SDS011;5755;48.116;11.608;2022-10-16T14:24:25;1.30;;;1.20;;
11398;SDS011;5755;48.116;11.608;2022-10-16T14:26:53;1.60;;;1.45;;
11398;SDS011;5755;48.116;11.608;2022-10-16T14:29:30;1.65;;;1.42;;
11398;SDS011;5755;48.116;11.608;2022-10-16T14:31:58;1.15;;;1.15;;
11398;SDS011;5755;48.116;11.608;2022-10-16T14:34:31;3.03;;;1.42;;
11398;SDS011;5755;48.116;11.608;2022-10-16T14:37:01;1.48;;;1.38;;
11398;SDS011;5755;48.116;11.608;2022-10-16T14:39:34;1.77;;;1.33;;
11398;SDS011;5755;48.116;11.608;2022-10-16T14:42:02;4.40;;;1.67;;
11398;SDS011;5755;48.116;11.608;2022-10-16T14:44:30;1.98;;;1.20;;
11398;SDS011;5755;48.116;11.608;2022-10-16T14:47:06;1.75;;;1.40;;
11398;SDS011;5755;48.116;11.608;2022-10-16T14:49:35;1.70;;;1.60;;
11398;SDS011;5755;48.116;11.608;2022-10-16T14:52:07;1.60;;;1.40;;
11398;SDS011;5755;48.116;11.608;2022-10-16T14:54:42;1.40;;;1.30;;
11398;SDS011;5755;48.116;11.608;2022-10-16T14:59:48;1.42;;;1.33;;
11398;SDS011;5755;48.116;11.608;2022-10-16T15:02:19;3.97;;;1.67;;
11398;SDS011;5755;48.116;11.608;2022-10-16T15:07:50;2.58;;;1.60;;
11398;SDS011;5755;48.116;11.608;2022-10-16T15:12:53;2.38;;;2.17;;
11398;SDS011;5755;48.116;11.608;2022-10-16T15:21:48;2.15;;;1.95;;
11398;SDS011;5755;48.116;11.608;2022-10-16T15:24:32;2.03;;;1.80;;
11398;SDS011;5755;48.116;11.608;2022-10-16T15:26:58;1.60;;;1.50;;
11398;SDS011;5755;48.116;11.608;2022-10-16T15:29:25;1.60;;;1.50;;
11398;SDS011;5755;48.116;11.608;2022-10-16T15:31:52;4.22;;;1.60;;
11398;SDS011;5755;48.116;11.608;2022-10-16T15:37:27;2.45;;;1.88;;
11398;SDS011;5755;48.116;11.608;2022-10-16T15:40:02;2.30;;;1.60;;
11398;SDS011;5755;48.116;11.608;2022-10-16T15:42:29;3.25;;;1.80;;
11398;SDS011;5755;48.116;11.608;2022-10-16T15:51:12;1.92;;;1.73;;
11398;SDS011;5755;48.116;11.608;2022-10-16T15:53:55;2.15;;;1.48;;
11398;SDS011;5755;48.116;11.608;2022-10-16T15:56:23;2.33;;;1.50;;
11398;SDS011;5755;48.116;11.608;2022-10-16T15:58:50;1.50;;;1.40;;
11398;SDS011;5755;48.116;11.608;2022-10-16T16:01:18;1.60;;;1.50;;
11398;SDS011;5755;48.116;11.608;2022-10-16T16:03:45;2.33;;;1.55;;
11398;SDS011;5755;48.116;11.608;2022-10-16T16:06:13;1.75;;;1.50;;
11398;SDS011;5755;48.116;11.608;2022-10-16T16:08:40;3.47;;;1.60;;
11398;SDS011;5755;48.116;11.608;2022-10-16T16:11:13;2.28;;;1.70;;
11398;SDS011;5755;48.116;11.608;2022-10-16T16:13:50;3.20;;;1.50;;
11398;SDS011;5755;48.116;11.608;2022-10-16T16:16:24;3.10;;;1.40;;
11398;SDS011;5755;48.116;11.608;2022-10-16T16:19:00;2.53;;;1.52;;
11398;SDS011;5755;48.116;11.608;2022-10-16T16:21:42;3.65;;;2.10;;
11398;SDS011;5755;48.116;11.608;2022-10-16T16:27:24;2.97;;;1.90;;
11398;SDS011;5755;48.116;11.608;2022-10-16T16:29:56;1.80;;;1.70;;
11398;SDS011;5755;48.116;11.608;2022-10-16T16:32:22;4.30;;;1.85;;
11398;SDS011;5755;48.116;11.608;2022-10-16T16:34:49;4.70;;;1.80;;
11398;SDS011;5755;48.116;11.608;2022-10-16T16:37:16;3.28;;;2.25;;
11398;SDS011;5755;48.116;11.608;2022-10-16T16:39:43;1.75;;;1.65;;
11398;SDS011;5755;48.116;11.608;2022-10-16T16:42:10;1.98;;;1.83;;
11398;SDS011;5755;48.116;11.608;2022-10-16T16:44:37;2.38;;;2.10;;
11398;SDS011;5755;48.116;11.608;2022-10-16T16:47:09;2.00;;;1.80;;
11398;SDS011;5755;48.116;11.608;2022-10-16T16:49:36;2.20;;;1.92;;
11398;SDS011;5755;48.116;11.608;2022-10-16T16:52:03;18.95;;;4.68;;
11398;SDS011;5755;48.116;11.608;2022-10-16T16:54:30;7.55;;;3.10;;
11398;SDS011;5755;48.116;11.608;2022-10-16T16:56:57;7.95;;;3.30;;
11398;SDS011;5755;48.116;11.608;2022-10-16T16:59:24;28.38;;;8.98;;
11398;SDS011;5755;48.116;11.608;2022-10-16T17:01:51;60.70;;;25.10;;
11398;SDS011;5755;48.116;11.608;2022-10-16T17:04:19;51.05;;;20.63;;
11398;SDS011;5755;48.116;11.608;2022-10-16T17:06:46;17.75;;;7.75;;
11398;SDS011;5755;48.116;11.608;2022-10-16T17:09:18;7.25;;;3.95;;
11398;SDS011;5755;48.116;11.608;2022-10-16T17:11:45;4.97;;;2.80;;
11398;SDS011;5755;48.116;11.608;2022-10-16T17:14:13;3.03;;;2.42;;
11398;SDS011;5755;48.116;11.608;2022-10-16T17:16:41;5.88;;;2.90;;
11398;SDS011;5755;48.116;11.608;2022-10-16T17:19:10;3.05;;;2.58;;
11398;SDS011;5755;48.116;11.608;2022-10-16T17:21:41;5.85;;;3.05;;
11398;SDS011;5755;48.116;11.608;2022-10-16T17:24:12;4.30;;;2.90;;
11398;SDS011;5755;48.116;11.608;2022-10-16T17:26:39;3.25;;;2.88;;
11398;SDS011;5755;48.116;11.608;2022-10-16T17:29:09;5.70;;;2.85;;
11398;SDS011;5755;48.116;11.608;2022-10-16T17:31:37;7.32;;;3.05;;
11398;SDS011;5755;48.116;11.608;2022-10-16T17:34:06;6.53;;;2.85;;
11398;SDS011;5755;48.116;11.608;2022-10-16T17:36:35;3.85;;;2.90;;
11398;SDS011;5755;48.116;11.608;2022-10-16T17:39:05;4.40;;;2.80;;
11398;SDS011;5755;48.116;11.608;2022-10-16T17:41:33;2.95;;;2.65;;
11398;SDS011;5755;48.116;11.608;2022-10-16T17:44:01;3.95;;;2.40;;
11398;SDS011;5755;48.116;11.608;2022-10-16T17:46:29;5.45;;;3.53;;
11398;SDS011;5755;48.116;11.608;2022-10-16T17:48:56;6.15;;;3.20;;
11398;SDS011;5755;48.116;11.608;2022-10-16T17:51:25;4.63;;;3.47;;
11398;SDS011;5755;48.116;11.608;2022-10-16T17:53:53;5.75;;;3.08;;
11398;SDS011;5755;48.116;11.608;2022-10-16T17:56:23;3.85;;;2.55;;
11398;SDS011;5755;48.116;11.608;2022-10-16T17:58:55;6.40;;;2.80;;
11398;SDS011;5755;48.116;11.608;2022-10-16T18:01:25;3.92;;;2.80;;
11398;SDS011;5755;48.116;11.608;2022-10-16T18:03:54;3.22;;;2.72;;
11398;SDS011;5755;48.116;11.608;2022-10-16T18:06:22;5.05;;;3.03;;
11398;SDS011;5755;48.116;11.608;2022-10-16T18:08:49;5.80;;;3.40;;
11398;SDS011;5755;48.116;11.608;2022-10-16T18:11:16;3.45;;;2.88;;
11398;SDS011;5755;48.116;11.608;2022-10-16T18:13:51;3.85;;;2.97;;
11398;SDS011;5755;48.116;11.608;2022-10-16T18:16:19;3.58;;;2.80;;
11398;SDS011;5755;48.116;11.608;2022-10-16T18:18:46;5.25;;;3.28;;
11398;SDS011;5755;48.116;11.608;2022-10-16T18:21:13;6.28;;;3.38;;
11398;SDS011;5755;48.116;11.608;2022-10-16T18:23:42;6.35;;;3.90;;
11398;SDS011;5755;48.116;11.608;2022-10-16T18:26:10;6.90;;;4.10;;
11398;SDS011;5755;48.116;11.608;2022-10-16T18:28:38;5.82;;;4.72;;
11398;SDS011;5755;48.116;11.608;2022-10-16T18:31:09;6.57;;;4.93;;
11398;SDS011;5755;48.116;11.608;2022-10-16T18:33:38;6.50;;;5.15;;
11398;SDS011;5755;48.116;11.608;2022-10-16T18:36:06;6.82;;;5.45;;
11398;SDS011;5755;48.116;11.608;2022-10-16T18:38:36;8.90;;;5.15;;
11398;SDS011;5755;48.116;11.608;2022-10-16T18:41:04;7.15;;;5.85;;
11398;SDS011;5755;48.116;11.608;2022-10-16T18:43:31;7.10;;;5.68;;
11398;SDS011;5755;48.116;11.608;2022-10-16T18:45:58;7.63;;;6.45;;
11398;SDS011;5755;48.116;11.608;2022-10-16T18:48:28;9.15;;;6.05;;
11398;SDS011;5755;48.116;11.608;2022-10-16T18:51:04;10.23;;;6.00;;